地図

経路データ

SID SEASON NUMBER BASIN SUBBASIN NAME ISO_TIME NATURE LAT LON WMO_WIND WMO_PRES WMO_AGENCY TRACK_TYPE DIST2LAND LANDFALL IFLAG USA_AGENCY USA_ATCF_ID USA_LAT USA_LON USA_RECORD USA_STATUS USA_WIND USA_PRES USA_SSHS USA_R34_NE USA_R34_SE USA_R34_SW USA_R34_NW USA_R50_NE USA_R50_SE USA_R50_SW USA_R50_NW USA_R64_NE USA_R64_SE USA_R64_SW USA_R64_NW USA_POCI USA_ROCI USA_RMW USA_EYE TOKYO_LAT TOKYO_LON TOKYO_GRADE TOKYO_WIND TOKYO_PRES TOKYO_R50_DIR TOKYO_R50_LONG TOKYO_R50_SHORT TOKYO_R30_DIR TOKYO_R30_LONG TOKYO_R30_SHORT TOKYO_LAND CMA_LAT CMA_LON CMA_CAT CMA_WIND CMA_PRES HKO_LAT HKO_LON HKO_CAT HKO_WIND HKO_PRES NEWDELHI_LAT NEWDELHI_LON NEWDELHI_GRADE NEWDELHI_WIND NEWDELHI_PRES NEWDELHI_CI NEWDELHI_DP NEWDELHI_POCI REUNION_LAT REUNION_LON REUNION_TYPE REUNION_WIND REUNION_PRES REUNION_TNUM REUNION_CI REUNION_RMW REUNION_R34_NE REUNION_R34_SE REUNION_R34_SW REUNION_R34_NW REUNION_R50_NE REUNION_R50_SE REUNION_R50_SW REUNION_R50_NW REUNION_R64_NE REUNION_R64_SE REUNION_R64_SW REUNION_R64_NW BOM_LAT BOM_LON BOM_TYPE BOM_WIND BOM_PRES BOM_TNUM BOM_CI BOM_RMW BOM_R34_NE BOM_R34_SE BOM_R34_SW BOM_R34_NW BOM_R50_NE BOM_R50_SE BOM_R50_SW BOM_R50_NW BOM_R64_NE BOM_R64_SE BOM_R64_SW BOM_R64_NW BOM_ROCI BOM_POCI BOM_EYE BOM_POS_METHOD BOM_PRES_METHOD NADI_LAT NADI_LON NADI_CAT NADI_WIND NADI_PRES WELLINGTON_LAT WELLINGTON_LON WELLINGTON_WIND WELLINGTON_PRES DS824_LAT DS824_LON DS824_STAGE DS824_WIND DS824_PRES TD9636_LAT TD9636_LON TD9636_STAGE TD9636_WIND TD9636_PRES TD9635_LAT TD9635_LON TD9635_WIND TD9635_PRES TD9635_ROCI NEUMANN_LAT NEUMANN_LON NEUMANN_CLASS NEUMANN_WIND NEUMANN_PRES MLC_LAT MLC_LON MLC_CLASS MLC_WIND MLC_PRES USA_GUST BOM_GUST BOM_GUST_PER REUNION_GUST REUNION_GUST_PER USA_SEAHGT USA_SEARAD_NE USA_SEARAD_SE USA_SEARAD_SW USA_SEARAD_NW STORM_SPEED STORM_DIR
1997009S16188 1997 3 SP MM EVAN 1997-01-08 12:00:00 TS -15.5000 -171.700 main 197 197 O___________O_ jtwc_sh SH171997 -15.5000 -171.700 15 -1 -15.5000 -171.700 TC 15 6 197
1997009S16188 1997 3 SP MM EVAN 1997-01-08 15:00:00 TS -15.7675 -171.782 main 227 227 P___________P_ SH171997 -15.7675 -171.782 17 -1 -15.7675 -171.782 TC 17 5 201
1997009S16188 1997 3 SP MM EVAN 1997-01-08 18:00:00 TS -16.0000 -171.900 main 248 248 O___________O_ jtwc_sh SH171997 -16.0000 -171.900 20 -1 -16.0000 -171.900 TC 20 5 215
1997009S16188 1997 3 SP MM EVAN 1997-01-08 21:00:00 TS -16.1725 -172.078 main 268 257 P___________P_ SH171997 -16.1725 -172.078 22 -1 -16.1725 -172.078 TC 22 4 252
1997009S16188 1997 3 SP MM EVAN 1997-01-09 00:00:00 TS -16.1400 -172.340 15 1004 nadi main 257 257 O_______O___O_ jtwc_sh SH171997 -16.3000 -172.300 25 -1 -15.5000 -172.500 15 1004 -15.5000 -172.500 15 1004 -16.3000 -172.300 TC 25 5 274
1997009S16188 1997 3 SP MM EVAN 1997-01-09 03:00:00 TS -16.1400 -172.558 main 257 257 P______IP___P_ SH171997 -16.4150 -172.543 27 -1 -15.5900 -172.590 15 1004 -15.5900 -172.590 15 1004 -16.4150 -172.543 TC 27 4 268
1997009S16188 1997 3 SP MM EVAN 1997-01-09 06:00:00 TS -16.1571 -172.757 15 1004 nadi main 269 269 O_______O___O_ jtwc_sh SH171997 -16.5000 -172.800 30 -1 -15.7000 -172.700 15 1004 -15.7000 -172.700 15 1004 -16.5000 -172.800 TC 30 4 260
1997009S16188 1997 3 SP MM EVAN 1997-01-09 09:00:00 TS -16.2075 -172.950 main 270 272 P______IP___P_ SH171997 -16.5725 -173.057 32 -1 -15.8425 -172.842 15 1004 -15.8425 -172.842 15 1004 -16.5725 -173.057 TC 32 4 249
1997009S16188 1997 3 SP MM EVAN 1997-01-09 12:00:00 TS -16.3000 -173.150 15 1004 nadi main 284 284 O_______O___O_ jtwc_sh SH171997 -16.6000 -173.300 35 0 -16.0000 -173.000 15 1004 -16.0000 -173.000 15 1004 -16.6000 -173.300 TC 35 4 247
1997009S16188 1997 3 SP MM EVAN 1997-01-09 15:00:00 TS -16.3650 -173.333 main 300 300 P______IP___P_ SH171997 -16.5800 -173.515 35 0 -16.1500 -173.150 15 1004 -16.1500 -173.150 15 1004 -16.5800 -173.515 TC 35 4 253
1997009S16188 1997 3 SP MM EVAN 1997-01-09 18:00:00 TS -16.4000 -173.500 15 1004 nadi main 306 306 O_______O___O_ jtwc_sh SH171997 -16.5000 -173.700 35 0 -16.3000 -173.300 15 1004 -16.3000 -173.300 15 1004 -16.5000 -173.700 TC 35 3 262
1997009S16188 1997 3 SP MM EVAN 1997-01-09 21:00:00 TS -16.4112 -173.658 main 314 314 P______IP___P_ SH171997 -16.3650 -173.873 35 0 -16.4575 -173.443 17 1003 -16.4575 -173.443 17 1003 -16.3650 -173.873 TC 35 3 270
1997009S16188 1997 3 SP MM EVAN 1997-01-10 00:00:00 TS -16.4000 -173.800 20 1002 nadi main 318 318 O_______O___O_ jtwc_sh SH171997 -16.2000 -174.000 35 0 -16.6000 -173.600 20 1002 -16.6000 -173.600 20 1002 -16.2000 -174.000 TC 35 3 274
1997009S16188 1997 3 SP MM EVAN 1997-01-10 03:00:00 TS -16.3937 -173.925 main 322 322 P______IP___P_ SH171997 -16.0500 -174.072 35 0 -16.7374 -173.777 20 1002 -16.7374 -173.777 20 1002 -16.0500 -174.072 TC 35 2 282
1997009S16188 1997 3 SP MM EVAN 1997-01-10 06:00:00 TS -16.3500 -174.050 20 1002 nadi main 317 317 O_______O___O_ jtwc_sh SH171997 -15.9000 -174.100 35 0 -16.8000 -174.000 20 1002 -16.8000 -174.000 20 1002 -15.9000 -174.100 TC 35 3 295
1997009S16188 1997 3 SP MM EVAN 1997-01-10 09:00:00 TS -16.2513 -174.241 main 328 315 P______IP___P_ SH171997 -15.7500 -174.115 35 0 -16.7526 -174.368 20 1002 -16.7526 -174.368 20 1002 -15.7500 -174.115 TC 35 4 311
1997009S16188 1997 3 SP MM EVAN 1997-01-10 12:00:00 TS -16.1000 -174.350 20 1002 nadi main 322 297 O_______O___O_ jtwc_sh SH171997 -15.6000 -174.100 35 0 -16.6000 -174.600 20 1002 -16.6000 -174.600 20 1002 -15.6000 -174.100 TC 35 3 358
1997009S16188 1997 3 SP MM EVAN 1997-01-10 15:00:00 TS -15.9113 -174.256 main 297 266 P______IP___P_ SH171997 -15.4575 -174.080 35 0 -16.3650 -174.432 20 1002 -16.3650 -174.432 20 1002 -15.4575 -174.080 TC 35 5 36
1997009S16188 1997 3 SP MM EVAN 1997-01-10 18:00:00 TS -15.7000 -174.050 20 1002 nadi main 266 236 O_______O___O_ jtwc_sh SH171997 -15.3000 -174.000 35 0 -16.1000 -174.100 20 1002 -16.1000 -174.100 20 1002 -15.3000 -174.000 TC 35 6 44
1997009S16188 1997 3 SP MM EVAN 1997-01-10 21:00:00 TS -15.5037 -173.848 main 229 199 P______IP___P_ SH171997 -15.1150 -173.838 37 0 -15.8924 -173.858 22 1001 -15.8924 -173.858 22 1001 -15.1150 -173.838 TC 37 6 47
1997009S16188 1997 3 SP MM EVAN 1997-01-11 00:00:00 TS -15.3000 -173.600 25 1000 nadi main 199 163 O_______O___O_ jtwc_sh SH171997 -14.9000 -173.600 40 0 -15.7000 -173.600 25 1000 -15.7000 -173.600 25 1000 -14.9000 -173.600 TC 40 7 51
1997009S16188 1997 3 SP MM EVAN 1997-01-11 03:00:00 TS -15.0825 -173.315 main 163 130 P______IP___P_ SH171997 -14.6575 -173.315 42 0 -15.5075 -173.315 25 1000 -15.5075 -173.315 25 1000 -14.6575 -173.315 TC 42 7 52
1997009S16188 1997 3 SP MM EVAN 1997-01-11 06:00:00 TS -14.8500 -173.000 25 1000 nadi main 119 90 O_______O___O_ jtwc_sh SH171997 -14.4000 -173.000 45 0 -15.3000 -173.000 25 1000 -15.3000 -173.000 25 1000 -14.4000 -173.000 TC 45 8 52
1997009S16188 1997 3 SP MM EVAN 1997-01-11 09:00:00 TS -14.6000 -172.671 main 90 67 P______IP___P_ SH171997 -14.1425 -172.700 47 0 -15.0575 -172.642 25 999 -15.0575 -172.642 25 999 -14.1425 -172.700 TC 47 8 52
1997009S16188 1997 3 SP MM EVAN 1997-01-11 12:00:00 TS -14.3500 -172.350 25 999 nadi main 55 35 O_______O___O_ jtwc_sh SH171997 -13.9000 -172.400 50 0 -14.8000 -172.300 25 999 -14.8000 -172.300 25 999 -13.9000 -172.400 TC 50 8 51
1997009S16188 1997 3 SP MM EVAN 1997-01-11 15:00:00 TS -14.1137 -172.060 main 35 31 P______IP___P_ SH171997 -13.6775 -172.093 52 0 -14.5499 -172.028 25 999 -14.5499 -172.028 25 999 -13.6775 -172.093 TC 52 7 50
1997009S16188 1997 3 SP MM EVAN 1997-01-11 18:00:00 TS -13.9000 -171.800 25 999 nadi main 44 44 O_______O___O_ jtwc_sh SH171997 -13.5000 -171.800 55 0 -14.3000 -171.800 25 999 -14.3000 -171.800 25 999 -13.5000 -171.800 TC 55 6 49
1997009S16188 1997 3 SP MM EVAN 1997-01-11 21:00:00 TS -13.7062 -171.575 main 64 64 P______IP___P_ SH171997 -13.3775 -171.543 55 0 -14.0349 -171.608 25 999 -14.0349 -171.608 25 999 -13.3775 -171.543 TC 55 6 51
1997009S16188 1997 3 SP MM EVAN 1997-01-12 00:00:00 TS -13.5500 -171.350 25 999 nadi main 99 97 O_______O___O_ jtwc_sh SH171997 -13.3000 -171.300 55 0 -13.8000 -171.400 25 999 -13.8000 -171.400 25 999 -13.3000 -171.300 TC 55 6 59
1997009S16188 1997 3 SP MM EVAN 1997-01-12 03:00:00 TS -13.4200 -171.086 main 123 123 P______IP___P_ SH171997 -13.2275 -171.057 52 0 -13.6125 -171.115 27 998 -13.6125 -171.115 27 998 -13.2275 -171.057 TC 52 6 70
1997009S16188 1997 3 SP MM EVAN 1997-01-12 06:00:00 TS -13.3500 -170.800 30 997 nadi main 157 155 O_______O___O_ jtwc_sh SH171997 -13.2000 -170.800 50 0 -13.5000 -170.800 30 997 -13.5000 -170.800 30 997 -13.2000 -170.800 TC 50 6 83
1997009S16188 1997 3 SP MM EVAN 1997-01-12 09:00:00 TS -13.3525 -170.508 main 186 186 P______IP___P_ SH171997 -13.2350 -170.508 47 0 -13.4699 -170.508 30 997 -13.4699 -170.508 30 997 -13.2350 -170.508 TC 47 6 95
1997009S16188 1997 3 SP MM EVAN 1997-01-12 12:00:00 TS -13.4000 -170.200 30 997 nadi main 218 218 O_______O___O_ jtwc_sh SH171997 -13.3000 -170.200 45 0 -13.5000 -170.200 30 997 -13.5000 -170.200 30 997 -13.3000 -170.200 TC 45 6 98
1997009S16188 1997 3 SP MM EVAN 1997-01-12 15:00:00 TS -13.4350 -169.879 main 251 251 P______IP___P_ SH171997 -13.3425 -169.900 45 0 -13.5275 -169.857 32 996 -13.5275 -169.857 32 996 -13.3425 -169.900 TC 45 6 99
1997009S16188 1997 3 SP MM EVAN 1997-01-12 18:00:00 TS -13.5000 -169.550 35 995 nadi main 282 282 O_______O___O_ jtwc_sh SH171997 -13.4000 -169.600 45 0 -13.6000 -169.500 35 995 -13.6000 -169.500 35 995 -13.4000 -169.600 TC 45 7 105
1997009S16188 1997 3 SP MM EVAN 1997-01-12 21:00:00 TS -13.6100 -169.218 main 324 324 P______IP___P_ SH171997 -13.4850 -169.300 47 0 -13.7350 -169.135 37 992 -13.7350 -169.135 37 992 -13.4850 -169.300 TC 47 7 112
1997009S16188 1997 3 SP MM EVAN 1997-01-13 00:00:00 TS -13.7500 -168.900 40 990 nadi main 356 356 O_______O___O_ jtwc_sh SH171997 -13.6000 -169.000 50 0 -13.9000 -168.800 40 990 -13.9000 -168.800 40 990 -13.6000 -169.000 TC 50 6 114
1997009S16188 1997 3 SP MM EVAN 1997-01-13 03:00:00 TS -13.8737 -168.617 main 389 389 P______IP___P_ SH171997 -13.7125 -168.700 52 0 -14.0349 -168.535 42 988 -14.0349 -168.535 42 988 -13.7125 -168.700 TC 52 6 119
1997009S16188 1997 3 SP MM EVAN 1997-01-13 06:00:00 TS -14.0500 -168.350 45 987 nadi main 410 410 O_______O___O_ jtwc_sh SH171997 -13.9000 -168.400 55 0 -14.2000 -168.300 45 987 -14.2000 -168.300 45 987 -13.9000 -168.400 TC 55 7 131
1997009S16188 1997 3 SP MM EVAN 1997-01-13 09:00:00 TS -14.3199 -168.082 main 446 446 P______IP___P_ SH171997 -14.2199 -168.107 57 0 -14.4200 -168.057 47 986 -14.4200 -168.057 47 986 -14.2199 -168.107 TC 57 8 138
1997009S16188 1997 3 SP MM EVAN 1997-01-13 12:00:00 TS -14.6500 -167.800 50 985 nadi main 482 485 O_______O___O_ jtwc_sh SH171997 -14.6000 -167.800 60 0 -14.7000 -167.800 50 985 -14.7000 -167.800 50 985 -14.6000 -167.800 TC 60 9 139
1997009S16188 1997 3 SP MM EVAN 1997-01-13 15:00:00 TS -14.9888 -167.475 main 523 523 P______IP___P_ SH171997 -14.9425 -167.450 62 0 -15.0350 -167.500 52 982 -15.0350 -167.500 52 982 -14.9425 -167.450 TC 62 9 138
1997009S16188 1997 3 SP MM EVAN 1997-01-13 18:00:00 TS -15.3500 -167.150 55 980 nadi main 574 574 O_______O___O_ jtwc_sh SH171997 -15.3000 -167.100 65 1 -15.4000 -167.200 55 980 -15.4000 -167.200 55 980 -15.3000 -167.100 TC 65 9 141
1997009S16188 1997 3 SP MM EVAN 1997-01-13 21:00:00 TS -15.7175 -166.856 main 608 608 P______IP___P_ SH171997 -15.6850 -166.777 65 1 -15.7500 -166.935 57 977 -15.7500 -166.935 57 977 -15.6850 -166.777 TC 65 9 145
1997009S16188 1997 3 SP MM EVAN 1997-01-14 00:00:00 TS -16.1000 -166.600 60 975 nadi main 654 654 O_______O___O_ jtwc_sh SH171997 -16.1000 -166.500 65 1 -16.1000 -166.700 60 975 -16.1000 -166.700 60 975 -16.1000 -166.500 TC 65 9 149
1997009S16188 1997 3 SP MM EVAN 1997-01-14 03:00:00 TS -16.4737 -166.377 main 692 692 P______IP___P_ SH171997 -16.5200 -166.277 65 1 -16.4275 -166.477 60 975 -16.4275 -166.477 60 975 -16.5200 -166.277 TC 65 9 154
1997009S16188 1997 3 SP MM EVAN 1997-01-14 06:00:00 TS -16.9000 -166.200 60 975 nadi main 731 731 O_______O___O_ jtwc_sh SH171997 -17.0000 -166.100 65 1 -16.8000 -166.300 60 975 -16.8000 -166.300 60 975 -17.0000 -166.100 TC 65 10 162
1997009S16188 1997 3 SP MM EVAN 1997-01-14 09:00:00 TS -17.4200 -166.053 main 767 767 P______IP___P_ SH171997 -17.5700 -165.928 65 1 -17.2700 -166.177 62 972 -17.2700 -166.177 62 972 -17.5700 -165.928 TC 65 11 168
1997009S16188 1997 3 SP MM EVAN 1997-01-14 12:00:00 TS -18.0000 -165.950 65 970 nadi main 812 812 O_______O___O_ jtwc_sh SH171997 -18.2000 -165.800 65 1 -17.8000 -166.100 65 970 -17.8000 -166.100 65 970 -18.2000 -165.800 TC 65 11 172
1997009S16188 1997 3 SP MM EVAN 1997-01-14 15:00:00 TS -18.5213 -165.881 main 854 854 P______IP___P_ SH171997 -18.8125 -165.705 65 1 -18.2301 -166.057 65 970 -18.2301 -166.057 65 970 -18.8125 -165.705 TC 65 12 175
1997009S16188 1997 3 SP MM EVAN 1997-01-14 18:00:00 TS -19.2000 -165.850 65 970 nadi main 903 903 O_______O___O_ jtwc_sh SH171997 -19.5000 -165.700 65 1 -18.9000 -166.000 65 970 -18.9000 -166.000 65 970 -19.5000 -165.700 TC 65 17 178
1997009S16188 1997 3 SP MM EVAN 1997-01-14 21:00:00 TS -20.2450 -165.817 main 987 987 P______IP___P_ SH171997 -20.3200 -165.798 67 1 -20.1701 -165.836 67 967 -20.1701 -165.836 67 967 -20.3200 -165.798 TC 67 22 180
1997009S16188 1997 3 SP MM EVAN 1997-01-15 00:00:00 TS -21.3500 -165.850 70 965 nadi main 1072 1072 O_______O___O_ jtwc_sh SH171997 -21.2000 -166.000 70 1 -21.5000 -165.700 70 965 -21.5000 -165.700 70 965 -21.2000 -166.000 TC 70 19 185
1997009S16188 1997 3 SP MM EVAN 1997-01-15 03:00:00 TS -22.1687 -165.980 main 1145 1145 P______IP___P_ SH171997 -22.0426 -166.285 70 1 -22.2948 -165.675 70 965 -22.2948 -165.675 70 965 -22.0426 -166.285 TC 70 16 191
1997009S16188 1997 3 SP MM EVAN 1997-01-15 06:00:00 TS -22.9500 -166.200 70 965 nadi main 1198 1207 O_______O___O_ jtwc_sh SH171997 -22.9000 -166.600 70 1 -23.0000 -165.800 70 965 -23.0000 -165.800 70 965 -22.9000 -166.600 TC 70 18 194
1997009S16188 1997 3 SP MM EVAN 1997-01-15 09:00:00 TS -23.8661 -166.448 main 1283 1278 P______IP___P_ SH171997 -23.7848 -166.836 67 1 -23.9473 -166.061 67 967 -23.9473 -166.061 67 967 -23.7848 -166.836 TC 67 20 196
1997009S16188 1997 3 SP MM EVAN 1997-01-15 12:00:00 TS -24.8500 -166.800 65 970 nadi main 1354 1354 O_______O___O_ jtwc_sh SH171997 -24.7000 -167.100 65 1 -25.0000 -166.500 65 970 -25.0000 -166.500 65 970 -24.7000 -167.100 TC 65 22 200
1997009S16188 1997 3 SP MM EVAN 1997-01-15 15:00:00 TS -25.8937 -167.272 main 1446 1446 P______IP___P_ SH171997 -25.6573 -167.455 62 0 -26.1300 -167.089 62 972 -26.1300 -167.089 62 972 -25.6573 -167.455 TC 62 23 205
1997009S16188 1997 3 SP MM EVAN 1997-01-15 18:00:00 TS -26.9000 -167.850 60 975 wellington main 1531 1531 O_______O___O_ jtwc_sh SH171997 -26.6000 -167.900 60 0 -27.2000 -167.800 60 975 -27.2000 -167.800 60 975 -26.6000 -167.900 TC 60 22 211
1997009S16188 1997 3 SP MM EVAN 1997-01-15 21:00:00 TS -27.7742 -168.526 main 1611 1533 P______IP___P_ SH171997 -27.4728 -168.457 57 0 -28.0755 -168.595 57 977 -28.0755 -168.595 57 977 -27.4728 -168.457 TC 57 20 215
1997009S16188 1997 3 SP MM EVAN 1997-01-16 00:00:00 TS -28.5500 -169.150 55 980 wellington main 1533 1451 O_______O___O_ jtwc_sh SH171997 -28.3000 -169.000 55 0 -28.8000 -169.300 55 980 -28.8000 -169.300 55 980 -28.3000 -169.000 TC 55 17 211
1997009S16188 1997 3 SP MM EVAN 1997-01-16 03:00:00 TS -29.2532 -169.558 main 1436 1376 P______IP___P_ SH171997 -29.0923 -169.411 52 0 -29.3917 -169.705 52 982 -29.4366 -169.704 52 982 -29.0923 -169.411 TC 52 15 204
1997009S16188 1997 3 SP MM EVAN 1997-01-16 06:00:00 TS -29.9500 -169.850 50 985 wellington main 1369 1288 O_______O___O_ jtwc_sh SH171997 -29.9000 -169.700 50 0 -30.0000 -170.000 50 985 -30.0000 -170.000 50 985 -29.9000 -169.700 TC 50 16 201
1997009S16188 1997 3 SP MM EVAN 1997-01-16 09:00:00 TS -30.7051 -170.188 main 1288 1217 P______IP___P_ SH171997 -30.7399 -169.939 47 0 -30.8428 -170.436 47 986 -30.4978 -170.438 47 986 -30.7399 -169.939 TC 47 17 196
1997009S16188 1997 3 SP MM EVAN 1997-01-16 12:00:00 TS -31.5500 -170.400 45 987 wellington main 1217 1153 O_______O___O_ jtwc_sh SH171997 -31.7000 -170.000 45 0 -31.7000 -170.800 45 987 -31.1000 -170.800 45 987 -31.7000 -170.000 TC 45 18 186
1997009S16188 1997 3 SP MM EVAN 1997-01-16 15:00:00 TS -32.5310 -170.430 main 1153 1104 P______IP___P_ SH171997 -32.8697 -169.862 42 0 -32.3647 -170.998 42 988 -32.0198 -170.997 42 988 -32.8697 -169.862 TC 42 20 176
1997009S16188 1997 3 SP MM EVAN 1997-01-16 18:00:00 TS -33.5500 -170.250 40 990 wellington main 1112 1090 O_______O___O_ jtwc_sh SH171997 -34.1000 -169.500 40 0 -33.0000 -171.000 40 990 -33.0000 -171.000 40 990 -34.1000 -169.500 TC 40 20 167
1997009S16188 1997 3 SP MM EVAN 1997-01-16 21:00:00 TS -34.4676 -169.896 main 1089 1089 P______IP___P_ SH171997 -35.2153 -168.953 40 0 -33.6973 -170.839 35 993 -33.7423 -170.839 35 993 -35.2153 -168.953 TC 40 21 158
1997009S16188 1997 3 SP MM EVAN 1997-01-17 00:00:00 TS -35.4600 -169.327 30 996 wellington main 1104 1101 O_______O___O_ jtwc_sh SH171997 -36.3000 -168.300 40 0 -34.5000 -170.500 30 996 -34.5000 -170.500 30 996 -36.3000 -168.300 TC 40 23 155
1997009S16188 1997 3 SP MM EVAN 1997-01-17 03:00:00 TS -36.5554 -168.717 main 1128 1126 P______IP___P_ SH171997 -37.4148 -167.691 37 0 -35.4556 -170.036 30 996 -35.3867 -170.107 30 996 -37.4148 -167.691 TC 37 23 157
1997009S16188 1997 3 SP MM EVAN 1997-01-17 06:00:00 TS -37.5909 -168.191 30 996 wellington main 1158 1157 O_______O___O_ jtwc_sh SH171997 -38.5000 -167.100 35 0 -36.5000 -169.500 30 996 -36.5000 -169.500 30 996 -38.5000 -167.100 TC 35 24 158
1997009S16188 1997 3 SP MM EVAN 1997-01-17 09:00:00 TS -38.7408 -167.596 main 1206 1206 P_______P___P_ SH171997 -39.5204 -166.543 35 0 -37.9613 -168.649 30 995 -39.5204 -166.543 TC 35 24 158
1997009S16188 1997 3 SP MM EVAN 1997-01-17 12:00:00 TS -39.8333 -167.000 30 994 wellington main 1265 1265 O_______O___O_ jtwc_sh SH171997 -40.5000 -166.000 35 0 -39.5000 -167.500 30 994 -40.5000 -166.000 TC 35 24 150
1997009S16188 1997 3 SP MM EVAN 1997-01-17 15:00:00 NR -40.7881 -166.072 main 1354 1354 ________P_____ SH171997 -1 -40.7881 -166.072 30 992 TC 29 139
1997009S16188 1997 3 SP MM EVAN 1997-01-17 18:00:00 NR -42.0000 -164.500 30 990 wellington main 1503 1503 ________O_____ -1 -42.0000 -164.500 30 990 33 138
1997009S16188 1997 3 SP MM EVAN 1997-01-17 21:00:00 NR -43.2450 -163.064 main 1637 1637 ________P_____ -1 -43.2450 -163.064 30 988 33 139
1997009S16188 1997 3 SP MM EVAN 1997-01-18 00:00:00 NR -44.5000 -161.500 30 986 wellington main 1789 1789 ________O_____ -1 -44.5000 -161.500 30 986 36 136
1997009S16188 1997 3 SP MM EVAN 1997-01-18 03:00:00 NR -45.8250 -159.579 main 1965 1965 ________P_____ -1 -45.8250 -159.579 30 986 37 132
1997009S16188 1997 3 SP MM EVAN 1997-01-18 06:00:00 NR -47.0000 -157.500 30 986 wellington main 2153 2153 ________O_____ -1 -47.0000 -157.500 30 986 34 126
1997009S16188 1997 3 SP MM EVAN 1997-01-18 09:00:00 NR -47.8362 -155.488 main 2320 2320 ________P_____ -1 -47.8362 -155.488 30 986 31 119
1997009S16188 1997 3 SP MM EVAN 1997-01-18 12:00:00 NR -48.5000 -153.500 30 986 wellington main 2482 2482 ________O_____ -1 -48.5000 -153.500 30 986 30 118
1997009S16188 1997 3 SP MM EVAN 1997-01-18 15:00:00 NR -49.2417 -151.540 main 2641 2641 ________P_____ -1 -49.2417 -151.540 30 987 29 116
1997009S16188 1997 3 SP MM EVAN 1997-01-18 18:00:00 NR -49.8000 -149.500 30 988 wellington main 2796 2761 ________O_____ -1 -49.8000 -149.500 30 988 28 106
1997009S16188 1997 3 SP MM EVAN 1997-01-18 21:00:00 NR -50.0155 -147.294 main 2761 2742 ________P_____ -1 -50.0155 -147.294 30 989 29 94
1997009S16188 1997 3 SP MM EVAN 1997-01-19 00:00:00 NR -50.0000 -145.000 30 990 wellington main 2740 ________O_____ -1 -50.0000 -145.000 30 990 29 89

デジタル台風データ・検索

IBTrACS Databaseについて

本データベースは、米国NOAAが公開する1842年以降の世界の熱帯低気圧のベストトラックデータアーカイブInternational Best Track Archive for Climate Stewardship (IBTrACS)を、ウェブで閲覧しやすい形式に変換したものです。

最終更新日:2021-12-03